createdAt,value
2023-05-16T04:00:28.713Z,84.00
2023-05-16T04:05:28.855Z,180.00
2023-05-16T04:10:28.560Z,272.00
2023-05-16T04:15:28.799Z,208.00
2023-05-16T04:20:28.448Z,200.00
2023-05-16T04:25:28.674Z,356.00
2023-05-16T04:30:28.346Z,380.00
2023-05-16T04:35:28.443Z,420.00
2023-05-16T04:40:28.239Z,432.00
2023-05-16T04:45:28.324Z,764.00
2023-05-16T04:50:28.103Z,1760.00
2023-05-16T04:55:28.269Z,1540.00
2023-05-16T05:00:28.370Z,2352.00
2023-05-16T05:05:28.420Z,2876.00
2023-05-16T05:10:27.915Z,3996.00
2023-05-16T05:15:28.239Z,7960.00
2023-05-16T05:20:27.813Z,10060.00
2023-05-16T05:25:28.128Z,26880.00
2023-05-16T05:30:27.720Z,13572.00
2023-05-16T05:35:27.999Z,39872.00
2023-05-16T05:40:27.619Z,15464.00
2023-05-16T05:45:27.845Z,33984.00
2023-05-16T05:50:27.459Z,29984.00
2023-05-16T05:55:27.794Z,44480.00
2023-05-16T06:00:27.452Z,41824.00
2023-05-16T06:05:27.659Z,46464.00
2023-05-16T06:10:27.267Z,45440.00
2023-05-16T06:15:27.528Z,45408.00
2023-05-16T06:20:27.163Z,42816.00
2023-05-16T06:25:27.411Z,40128.00
2023-05-16T06:30:27.059Z,36544.00
2023-05-16T06:35:27.281Z,9348.00
2023-05-16T06:40:26.944Z,37952.00
2023-05-16T06:45:27.287Z,37376.00
2023-05-16T06:50:26.850Z,29632.00
2023-05-16T06:55:27.114Z,26432.00
2023-05-16T07:00:26.765Z,26976.00
2023-05-16T07:05:26.937Z,25888.00
2023-05-16T07:10:26.702Z,26432.00
2023-05-16T07:15:27.074Z,8608.00
2023-05-16T07:20:26.591Z,7484.00
2023-05-16T07:25:26.618Z,7740.00
2023-05-16T07:30:26.414Z,23328.00
2023-05-16T07:35:26.714Z,21536.00
2023-05-16T07:40:26.373Z,17216.00
2023-05-16T07:45:26.434Z,19136.00
2023-05-16T07:50:26.194Z,17632.00
2023-05-16T07:55:26.303Z,16352.00
2023-05-16T08:00:26.157Z,14580.00
2023-05-16T08:05:26.227Z,13772.00
2023-05-16T08:10:25.950Z,13432.00
2023-05-16T08:15:26.142Z,12988.00
2023-05-16T08:20:25.900Z,11960.00
2023-05-16T08:25:25.980Z,11712.00
2023-05-16T08:30:25.759Z,6460.00
2023-05-16T08:35:25.983Z,6376.00
2023-05-16T08:40:25.671Z,6744.00
2023-05-16T08:45:25.710Z,6708.00
2023-05-16T08:50:25.520Z,9496.00
2023-05-16T08:55:25.631Z,8920.00
2023-05-16T09:00:25.513Z,8392.00
2023-05-16T09:05:25.597Z,8308.00
2023-05-16T09:10:25.332Z,9248.00
2023-05-16T09:15:25.441Z,8016.00
2023-05-16T09:20:25.263Z,9764.00
2023-05-16T09:30:25.117Z,9340.00
2023-05-16T09:35:39.949Z,9460.00
2023-05-16T09:40:26.140Z,10916.00
2023-05-16T09:45:25.012Z,8324.00
2023-05-16T09:50:25.297Z,5388.00
2023-05-16T09:55:24.824Z,8464.00
2023-05-16T10:00:24.846Z,9324.00
2023-05-16T10:05:24.772Z,7140.00
2023-05-16T10:10:24.699Z,6144.00
2023-05-16T10:15:24.833Z,7752.00
2023-05-16T10:20:24.790Z,9876.00
2023-05-16T10:25:24.544Z,7888.00
2023-05-16T10:30:24.447Z,7156.00
2023-05-16T10:35:24.536Z,7272.00
2023-05-16T10:40:24.407Z,6992.00
2023-05-16T10:45:24.289Z,8320.00
2023-05-16T10:50:24.256Z,8968.00
2023-05-16T10:55:24.270Z,8604.00
2023-05-16T11:00:24.186Z,9584.00
2023-05-16T11:05:24.081Z,10748.00
2023-05-16T11:10:24.033Z,7792.00
2023-05-16T11:15:23.962Z,5992.00
2023-05-16T11:20:24.042Z,5780.00
2023-05-16T11:25:23.843Z,6648.00
2023-05-16T11:30:23.801Z,8344.00
2023-05-16T11:35:23.792Z,10892.00
2023-05-16T11:40:23.760Z,7540.00
2023-05-16T11:45:23.637Z,7340.00
2023-05-16T11:50:23.646Z,4376.00
2023-05-16T11:55:36.835Z,6992.00
2023-05-16T12:00:24.997Z,6760.00
2023-05-16T12:05:23.441Z,9964.00
2023-05-16T12:10:23.371Z,9532.00
2023-05-16T12:15:23.342Z,10244.00
2023-05-16T12:20:23.331Z,6164.00
2023-05-16T12:25:23.218Z,4288.00
2023-05-16T12:30:23.161Z,4600.00
2023-05-16T12:35:23.096Z,5380.00
2023-05-16T12:40:23.068Z,5880.00
2023-05-16T12:45:23.033Z,5176.00
2023-05-16T12:50:23.060Z,5500.00
2023-05-16T12:55:22.899Z,5764.00
2023-05-16T13:00:22.926Z,5764.00
2023-05-16T13:05:22.785Z,5960.00
2023-05-16T13:10:22.726Z,6316.00
2023-05-16T13:15:22.661Z,6940.00
2023-05-16T13:20:22.771Z,7136.00
2023-05-16T13:25:22.544Z,7580.00
2023-05-16T13:30:22.500Z,6072.00
2023-05-16T13:35:22.441Z,7748.00
2023-05-16T13:40:22.491Z,8080.00
2023-05-16T13:45:22.321Z,7748.00
2023-05-16T13:50:22.296Z,4264.00
2023-05-16T13:55:22.234Z,4508.00
2023-05-16T14:05:22.107Z,4336.00
2023-05-16T14:10:22.080Z,6668.00
2023-05-16T14:15:22.004Z,5140.00
2023-05-16T14:20:22.103Z,4784.00
2023-05-16T14:25:21.889Z,6968.00
2023-05-16T14:30:21.842Z,5020.00
2023-05-16T14:35:21.819Z,5400.00
2023-05-16T14:40:22.005Z,5008.00
2023-05-16T14:45:21.695Z,5036.00
2023-05-16T14:50:21.632Z,6528.00
2023-05-16T14:55:21.577Z,6024.00
2023-05-16T15:00:21.636Z,6240.00
2023-05-16T15:05:21.577Z,6144.00
2023-05-16T15:10:21.435Z,5876.00
2023-05-16T15:15:21.367Z,5908.00
2023-05-16T15:20:22.665Z,5284.00
2023-05-16T15:25:21.250Z,5040.00
2023-05-16T15:30:21.195Z,3912.00
2023-05-16T15:35:21.134Z,3124.00
2023-05-16T15:40:26.276Z,2592.00
2023-05-16T15:45:22.064Z,1992.00
2023-05-16T15:50:20.983Z,2524.00
2023-05-16T15:55:20.922Z,3740.00
2023-05-16T16:00:21.041Z,5536.00
2023-05-16T16:05:20.835Z,5144.00
2023-05-16T16:10:22.613Z,4468.00
2023-05-16T16:15:30.170Z,3672.00
2023-05-16T16:20:20.658Z,2904.00
2023-05-16T16:25:20.601Z,2580.00
2023-05-16T16:30:20.546Z,2692.00
2023-05-16T16:35:20.591Z,3064.00
2023-05-16T16:40:20.433Z,3452.00
2023-05-16T16:45:22.518Z,3360.00
2023-05-16T16:50:20.329Z,3188.00
2023-05-16T16:55:20.476Z,2712.00
2023-05-16T17:00:20.241Z,2280.00
2023-05-16T17:05:20.159Z,1960.00
2023-05-16T17:10:20.101Z,1808.00
2023-05-16T17:15:20.074Z,1688.00
2023-05-16T17:20:19.993Z,2220.00
2023-05-16T17:25:19.941Z,2396.00
2023-05-16T17:30:19.880Z,2232.00
2023-05-16T17:35:19.928Z,1944.00
2023-05-16T17:40:19.778Z,1540.00
2023-05-16T17:45:19.721Z,1184.00
2023-05-16T17:50:19.658Z,1004.00
2023-05-16T17:55:19.741Z,848.00
2023-05-16T18:00:19.577Z,696.00
2023-05-16T18:05:19.559Z,744.00
2023-05-16T18:10:19.439Z,840.00
2023-05-16T18:15:19.512Z,804.00
2023-05-16T18:20:19.512Z,640.00
2023-05-16T18:25:19.267Z,444.00
2023-05-16T18:30:19.218Z,312.00
2023-05-16T18:35:19.294Z,224.00
2023-05-16T18:40:19.097Z,180.00
2023-05-16T18:45:19.054Z,144.00
2023-05-16T18:50:19.032Z,112.00
2023-05-16T18:55:19.067Z,92.00
2023-05-16T19:00:18.876Z,80.00
2023-05-16T19:05:18.923Z,64.00
2023-05-16T19:10:18.772Z,48.00
2023-05-16T19:15:18.829Z,36.00
2023-05-16T19:20:18.694Z,20.00
2023-05-16T19:25:18.612Z,12.00
2023-05-16T19:30:18.548Z,8.00
2023-05-16T19:35:18.666Z,4.00
2023-05-16T19:40:18.454Z,0.00
2023-05-16T19:45:18.419Z,0.00
2023-05-16T19:50:18.340Z,0.00
2023-05-16T19:55:18.435Z,0.00
2023-05-16T20:00:18.357Z,0.00
2023-05-16T20:05:18.254Z,0.00
2023-05-16T20:10:20.445Z,0.00
2023-05-16T20:15:18.193Z,0.00
2023-05-16T20:20:18.009Z,0.00
2023-05-16T20:25:18.327Z,0.00
2023-05-16T20:30:17.897Z,0.00
2023-05-16T20:35:18.065Z,0.00
2023-05-16T20:40:17.797Z,0.00
2023-05-16T20:45:17.749Z,0.00
2023-05-16T20:50:17.707Z,0.00
2023-05-16T20:55:17.829Z,0.00
2023-05-16T21:00:17.599Z,0.00
2023-05-16T21:05:25.175Z,0.00
2023-05-16T21:10:18.488Z,0.00
2023-05-16T21:15:17.531Z,0.00
2023-05-16T21:20:17.404Z,0.00
2023-05-16T21:25:17.312Z,0.00
2023-05-16T21:30:17.716Z,0.00
2023-05-16T21:35:17.304Z,0.00
2023-05-16T21:40:17.170Z,0.00
2023-05-16T21:45:17.099Z,0.00
2023-05-16T21:50:17.058Z,0.00
2023-05-16T21:55:17.108Z,0.00
2023-05-16T22:00:16.961Z,0.00
2023-05-16T22:05:16.987Z,0.00
2023-05-16T22:10:16.846Z,0.00
2023-05-16T22:15:23.993Z,0.00
2023-05-16T22:20:16.741Z,0.00
2023-05-16T22:25:16.693Z,0.00
2023-05-16T22:30:16.623Z,0.00
2023-05-16T22:35:16.682Z,0.00
2023-05-16T22:40:16.549Z,0.00
2023-05-16T22:45:16.487Z,0.00
2023-05-16T22:50:16.414Z,0.00
2023-05-16T22:55:16.515Z,0.00
2023-05-16T23:00:16.317Z,0.00
2023-05-16T23:05:16.270Z,0.00
2023-05-16T23:10:16.210Z,0.00
2023-05-16T23:15:16.270Z,0.00
2023-05-16T23:20:16.099Z,0.00
2023-05-16T23:25:16.046Z,0.00
